Terminal Aerodrome Forecast
Issued by NWS Grand Forks, ND

Home | Current Version | Previous Version | Text Only | Print | Product List | Glossary On
Versions: 1 2 3 4 5 6 7 8 9 10 11 12 13 14 15 16
000
FTUS43 KFGF 212300
TAFGFK
TAF
KGFK 212333Z 2200/2224 17015KT P6SM OVC006
     FM220500 14012KT 4SM BR OVC004
     FM221700 10009KT 2SM -RASN BR OVC003=

USA.gov is the U.S. government's official web portal to all federal, state and local government web resources and services.